Time;durP1;ratioP1;P1;durP2;ratioP2;P2;SDS_P1;SDS_P2;PMS_P1;PMS_P2;Temp;Humidity;BMP_temperature;BMP_pressure;BME280_temperature;BME280_humidity;BME280_pressure;Samples;Min_cycle;Max_cycle;Signal;HPM_P1;HPM_P2
2022/07/24 00:00:17;;;;;;;0.40;0.10;;;23.60;62.50;;;;;;4190503;28;20064;-61
2022/07/24 00:02:39;;;;;;;0.00;0.00;;;23.60;61.50;;;;;;4192293;28;20052;-63
2022/07/24 00:05:01;;;;;;;0.00;0.00;;;23.50;61.70;;;;;;4192348;28;20052;-62
2022/07/24 00:07:25;;;;;;;0.00;0.00;;;23.60;61.80;;;;;;4192370;28;20098;-62
2022/07/24 00:09:47;;;;;;;0.00;0.00;;;23.60;61.70;;;;;;4192625;28;20060;-62
2022/07/24 00:12:10;;;;;;;0.00;0.00;;;23.50;61.70;;;;;;4192224;28;20044;-62
2022/07/24 00:14:32;;;;;;;0.00;0.00;;;23.50;61.70;;;;;;4192673;28;20395;-62
2022/07/24 00:16:54;;;;;;;0.00;0.00;;;23.50;61.70;;;;;;4191676;28;20048;-62
2022/07/24 00:19:16;;;;;;;0.00;0.00;;;23.50;61.80;;;;;;4192591;28;20095;-62
2022/07/24 00:21:38;;;;;;;0.32;0.32;;;23.50;61.70;;;;;;4192009;28;20052;-63
2022/07/24 00:24:02;;;;;;;0.00;0.00;;;23.50;61.80;;;;;;4192272;28;20449;-61
2022/07/24 00:26:24;;;;;;;0.00;0.00;;;23.50;61.80;;;;;;4189723;28;20044;-62
2022/07/24 00:28:48;;;;;;;0.00;0.00;;;23.50;61.70;;;;;;4192039;28;20098;-61
2022/07/24 00:31:10;;;;;;;0.00;0.00;;;23.50;61.70;;;;;;4192087;28;20520;-62
2022/07/24 00:33:32;;;;;;;0.00;0.00;;;23.50;61.80;;;;;;4191636;28;20074;-61
2022/07/24 00:35:54;;;;;;;0.85;0.85;;;23.50;61.80;;;;;;4192029;28;20138;-61
2022/07/24 00:38:16;;;;;;;0.00;0.00;;;23.50;61.90;;;;;;4174302;28;20040;-60
2022/07/24 00:40:40;;;;;;;0.00;0.00;;;23.50;61.80;;;;;;4175521;28;20143;-61
2022/07/24 00:43:03;;;;;;;0.03;0.03;;;23.40;61.80;;;;;;4173791;28;20045;-61
2022/07/24 00:45:25;;;;;;;0.00;0.00;;;23.40;61.90;;;;;;4184845;28;20048;-61
2022/07/24 00:47:47;;;;;;;0.00;0.00;;;23.40;61.80;;;;;;4192061;28;20146;-62
2022/07/24 00:50:10;;;;;;;0.00;0.00;;;23.40;61.90;;;;;;4191830;28;20044;-61
2022/07/24 00:52:33;;;;;;;0.00;0.00;;;23.40;61.80;;;;;;4191689;28;20450;-61
2022/07/24 00:54:55;;;;;;;0.00;0.00;;;23.40;61.90;;;;;;4191575;28;20239;-60
2022/07/24 00:57:19;;;;;;;0.00;0.00;;;23.40;61.90;;;;;;4191841;28;20044;-62
2022/07/24 00:59:41;;;;;;;0.05;0.05;;;23.40;61.90;;;;;;4191829;28;20052;-62
2022/07/24 01:02:04;;;;;;;0.00;0.00;;;23.40;62.00;;;;;;4190532;28;20052;-62
2022/07/24 01:04:26;;;;;;;0.10;0.10;;;23.40;62.00;;;;;;4191586;28;20044;-62
2022/07/24 01:06:48;;;;;;;0.45;0.45;;;23.40;62.10;;;;;;4190950;28;20048;-62
2022/07/24 01:09:10;;;;;;;0.47;0.47;;;23.30;62.00;;;;;;4191735;28;20487;-62
2022/07/24 01:11:33;;;;;;;0.00;0.00;;;23.30;62.00;;;;;;4192184;28;20044;-62
2022/07/24 01:13:57;;;;;;;0.00;0.00;;;23.30;62.10;;;;;;4194972;28;20051;-62
2022/07/24 01:16:19;;;;;;;0.00;0.00;;;23.30;62.10;;;;;;4193618;28;20391;-61
2022/07/24 01:18:41;;;;;;;0.00;0.00;;;23.30;62.00;;;;;;4195107;28;20458;-61
2022/07/24 01:21:05;;;;;;;0.00;0.00;;;23.30;62.10;;;;;;4178154;28;20151;-65
2022/07/24 01:23:27;;;;;;;0.00;0.00;;;23.30;62.00;;;;;;4178351;28;20103;-62
2022/07/24 01:25:49;;;;;;;0.00;0.00;;;23.30;62.20;;;;;;4178031;28;20084;-64
2022/07/24 01:28:11;;;;;;;0.00;0.00;;;23.30;62.30;;;;;;4178641;28;20052;-62
2022/07/24 01:30:34;;;;;;;0.00;0.00;;;23.30;62.20;;;;;;4178170;28;20045;-63
2022/07/24 01:32:56;;;;;;;0.00;0.00;;;23.30;63.10;;;;;;4178677;28;20494;-62
2022/07/24 01:35:18;;;;;;;1.20;0.68;;;23.30;62.20;;;;;;4178034;28;20052;-63
2022/07/24 01:37:45;;;;;;;0.00;0.00;;;23.30;62.20;;;;;;4177967;28;20408;-62
2022/07/24 01:40:08;;;;;;;0.00;0.00;;;23.30;62.20;;;;;;4178106;28;20074;-62
2022/07/24 01:42:30;;;;;;;0.00;0.00;;;23.30;62.20;;;;;;4178335;28;20400;-62
2022/07/24 01:44:52;;;;;;;0.00;0.00;;;23.30;62.30;;;;;;4192724;28;20454;-62
2022/07/24 01:47:14;;;;;;;0.00;0.00;;;23.30;62.30;;;;;;4193176;28;20052;-62
2022/07/24 01:49:36;;;;;;;0.00;0.00;;;23.30;62.30;;;;;;4194516;28;20600;-62
2022/07/24 01:51:58;;;;;;;0.00;0.00;;;23.30;62.30;;;;;;4194399;28;20045;-61
2022/07/24 01:54:21;;;;;;;0.10;0.10;;;23.30;62.30;;;;;;4194153;28;20044;-62
2022/07/24 01:56:44;;;;;;;1.65;1.17;;;23.30;62.30;;;;;;4194570;28;20060;-62
2022/07/24 01:59:06;;;;;;;0.00;0.00;;;23.30;62.50;;;;;;4192612;28;20561;-63
2022/07/24 02:01:30;;;;;;;0.00;0.00;;;23.30;63.20;;;;;;4194769;28;20075;-62
2022/07/24 02:03:52;;;;;;;0.00;0.00;;;23.30;62.40;;;;;;4194171;28;20101;-62
2022/07/24 02:06:14;;;;;;;0.00;0.00;;;23.30;62.30;;;;;;4194105;28;20103;-62
2022/07/24 02:08:36;;;;;;;0.00;0.00;;;23.20;62.40;;;;;;4194329;28;20515;-62
2022/07/24 02:10:59;;;;;;;0.00;0.00;;;23.20;62.40;;;;;;4194544;28;20100;-62
2022/07/24 02:13:21;;;;;;;0.00;0.00;;;23.20;62.50;;;;;;4193764;28;20178;-63
2022/07/24 02:15:43;;;;;;;0.00;0.00;;;23.20;62.40;;;;;;4192761;28;20052;-62
2022/07/24 02:18:05;;;;;;;0.00;0.00;;;23.20;63.30;;;;;;4193670;28;20060;-63
2022/07/24 02:20:29;;;;;;;0.00;0.00;;;23.20;62.40;;;;;;4194235;28;20052;-62
2022/07/24 02:22:51;;;;;;;0.00;0.00;;;23.20;62.40;;;;;;4193190;28;20056;-63
2022/07/24 02:25:14;;;;;;;0.00;0.00;;;23.20;62.40;;;;;;4194075;28;20069;-62
2022/07/24 02:27:38;;;;;;;0.00;0.00;;;23.20;62.50;;;;;;4193761;28;20403;-62
2022/07/24 02:30:00;;;;;;;0.00;0.00;;;23.20;62.50;;;;;;4193975;28;20514;-62
2022/07/24 02:32:22;;;;;;;0.00;0.00;;;23.20;62.50;;;;;;4193841;28;20051;-62
2022/07/24 02:34:44;;;;;;;0.00;0.00;;;23.20;62.50;;;;;;4193165;28;20048;-62
2022/07/24 02:37:06;;;;;;;0.00;0.00;;;23.20;62.60;;;;;;4193691;28;20487;-63
2022/07/24 02:39:28;;;;;;;0.10;0.10;;;23.20;62.60;;;;;;4192741;28;20098;-62
2022/07/24 02:41:50;;;;;;;0.00;0.00;;;23.20;62.60;;;;;;4193181;28;20053;-63
2022/07/24 02:44:13;;;;;;;0.20;0.20;;;23.20;62.60;;;;;;4193723;28;20052;-62
2022/07/24 02:46:35;;;;;;;0.00;0.00;;;23.20;62.70;;;;;;4193464;28;20135;-63
2022/07/24 02:48:56;;;;;;;0.00;0.00;;;23.20;62.50;;;;;;4194228;28;20102;-61
2022/07/24 02:51:19;;;;;;;0.10;0.10;;;23.20;62.60;;;;;;4193044;28;20377;-63
2022/07/24 02:53:41;;;;;;;0.00;0.00;;;23.20;62.70;;;;;;4191538;28;20150;-62
2022/07/24 02:56:03;;;;;;;0.08;0.08;;;23.20;62.60;;;;;;4193316;28;20083;-62
2022/07/24 02:58:25;;;;;;;1.65;1.20;;;23.20;62.70;;;;;;4191982;28;20056;-62
2022/07/24 03:00:48;;;;;;;0.00;0.00;;;23.20;62.70;;;;;;4193541;28;20140;-61
2022/07/24 03:03:10;;;;;;;0.40;0.40;;;23.20;62.80;;;;;;4193820;28;20056;-61
2022/07/24 03:05:33;;;;;;;0.00;0.00;;;23.20;62.80;;;;;;4191029;28;20080;-62
2022/07/24 03:07:55;;;;;;;0.00;0.00;;;23.20;62.70;;;;;;4193702;28;20126;-62
2022/07/24 03:10:17;;;;;;;0.00;0.00;;;23.20;62.70;;;;;;4193248;28;20156;-63
2022/07/24 03:12:40;;;;;;;0.00;0.00;;;23.10;62.60;;;;;;4193112;28;20114;-62
2022/07/24 03:15:03;;;;;;;0.00;0.00;;;23.10;62.70;;;;;;4193010;28;20388;-62
2022/07/24 03:17:26;;;;;;;0.00;0.00;;;23.10;62.70;;;;;;4193200;28;20511;-61
2022/07/24 03:19:48;;;;;;;0.77;0.50;;;23.10;62.70;;;;;;4192888;28;20150;-61
2022/07/24 03:22:10;;;;;;;0.00;0.00;;;23.10;62.60;;;;;;4193588;28;20040;-61
2022/07/24 03:24:33;;;;;;;0.00;0.00;;;23.10;62.70;;;;;;4193002;28;20056;-62
2022/07/24 03:26:55;;;;;;;0.00;0.00;;;23.10;62.70;;;;;;4193462;28;20048;-61
2022/07/24 03:29:18;;;;;;;0.00;0.00;;;23.10;62.70;;;;;;4192430;28;20110;-62
2022/07/24 03:31:39;;;;;;;0.00;0.00;;;23.10;62.70;;;;;;4193228;28;20107;-61
2022/07/24 03:34:03;;;;;;;0.00;0.00;;;23.10;62.70;;;;;;4191880;28;20189;-62
2022/07/24 03:36:25;;;;;;;0.00;0.00;;;23.10;62.80;;;;;;4192178;28;20051;-61
2022/07/24 03:38:48;;;;;;;0.00;0.00;;;23.10;62.70;;;;;;4192323;28;20059;-62
2022/07/24 03:41:10;;;;;;;0.13;0.13;;;23.10;62.70;;;;;;4192799;28;20047;-61
2022/07/24 03:43:32;;;;;;;0.00;0.00;;;23.10;62.80;;;;;;4191676;28;20040;-62
2022/07/24 03:45:55;;;;;;;0.00;0.00;;;23.10;62.80;;;;;;4190579;28;20062;-62
2022/07/24 03:48:17;;;;;;;0.00;0.00;;;23.10;62.80;;;;;;4190904;28;20056;-63
2022/07/24 03:50:41;;;;;;;0.00;0.00;;;23.00;62.80;;;;;;4190068;28;20053;-63
2022/07/24 03:53:06;;;;;;;0.00;0.00;;;23.10;62.80;;;;;;4190827;28;20147;-62
2022/07/24 03:55:29;;;;;;;0.00;0.00;;;23.00;62.90;;;;;;4190557;28;20223;-62
2022/07/24 03:57:51;;;;;;;0.00;0.00;;;23.00;62.90;;;;;;4192112;28;20054;-63
2022/07/24 04:00:14;;;;;;;0.63;0.63;;;23.00;62.90;;;;;;4192404;28;20380;-64
2022/07/24 04:02:36;;;;;;;0.00;0.00;;;23.00;62.80;;;;;;4192479;28;20056;-64
2022/07/24 04:04:58;;;;;;;0.00;0.00;;;23.00;62.80;;;;;;4192498;28;20131;-62
2022/07/24 04:07:21;;;;;;;0.00;0.00;;;23.10;62.90;;;;;;4174197;28;20119;-63
2022/07/24 04:09:43;;;;;;;0.00;0.00;;;23.00;62.80;;;;;;4176004;28;20076;-63
2022/07/24 04:12:06;;;;;;;0.10;0.10;;;23.00;62.80;;;;;;4174076;28;20051;-64
2022/07/24 04:14:28;;;;;;;0.00;0.00;;;23.00;62.80;;;;;;4176029;28;20060;-63
2022/07/24 04:16:50;;;;;;;0.00;0.00;;;23.00;62.80;;;;;;4173692;28;20106;-64
2022/07/24 04:19:12;;;;;;;0.28;0.28;;;23.00;62.80;;;;;;4175283;28;20059;-62
2022/07/24 04:21:35;;;;;;;0.00;0.00;;;23.00;62.80;;;;;;4174147;28;20036;-63
2022/07/24 04:23:59;;;;;;;0.30;0.30;;;23.00;62.80;;;;;;4175204;28;20049;-62
2022/07/24 04:26:21;;;;;;;0.00;0.00;;;23.00;62.90;;;;;;4190304;28;20075;-62
2022/07/24 04:28:42;;;;;;;0.00;0.00;;;23.00;63.10;;;;;;4192346;28;20056;-63
2022/07/24 04:31:05;;;;;;;0.45;0.45;;;23.00;63.20;;;;;;4192057;28;20526;-63
2022/07/24 04:33:27;;;;;;;0.43;0.43;;;23.00;63.20;;;;;;4191906;28;20048;-62
2022/07/24 04:35:49;;;;;;;0.13;0.13;;;23.10;63.30;;;;;;4192071;28;20086;-64
2022/07/24 04:38:12;;;;;;;0.20;0.20;;;23.00;63.10;;;;;;4192104;28;20518;-62
2022/07/24 04:40:36;;;;;;;2.17;1.75;;;23.00;63.10;;;;;;4190371;28;20044;-62
2022/07/24 04:42:58;;;;;;;0.00;0.00;;;23.00;63.10;;;;;;4175454;28;20041;-62
2022/07/24 04:45:20;;;;;;;0.00;0.00;;;23.00;63.10;;;;;;4173068;28;20099;-63
2022/07/24 04:47:42;;;;;;;0.00;0.00;;;23.00;64.00;;;;;;4175528;28;20056;-62
2022/07/24 04:50:06;;;;;;;0.00;0.00;;;23.00;63.10;;;;;;4175160;28;20535;-63
2022/07/24 04:52:28;;;;;;;0.28;0.28;;;23.00;63.10;;;;;;4188557;28;20044;-62
2022/07/24 04:54:50;;;;;;;0.00;0.00;;;23.00;63.10;;;;;;4192271;28;20055;-62
2022/07/24 04:57:13;;;;;;;0.00;0.00;;;23.00;63.10;;;;;;4191713;28;20052;-65
2022/07/24 04:59:35;;;;;;;0.45;0.45;;;23.00;63.20;;;;;;4191640;28;20047;-63
2022/07/24 05:01:57;;;;;;;0.00;0.00;;;23.00;63.10;;;;;;4192117;28;20055;-62
2022/07/24 05:04:22;;;;;;;0.08;0.08;;;23.00;63.20;;;;;;4190247;28;20488;-63
2022/07/24 05:06:46;;;;;;;2.20;0.63;;;23.00;63.10;;;;;;4190000;28;20090;-64
2022/07/24 05:09:08;;;;;;;0.00;0.00;;;23.00;63.20;;;;;;4191799;28;20044;-63
2022/07/24 05:11:30;;;;;;;0.00;0.00;;;23.00;63.20;;;;;;4174364;28;20099;-63
2022/07/24 05:13:54;;;;;;;0.00;0.00;;;23.00;63.20;;;;;;4173759;28;20040;-63
2022/07/24 05:16:17;;;;;;;0.00;0.00;;;23.00;63.10;;;;;;4175109;28;20053;-63
2022/07/24 05:18:39;;;;;;;0.00;0.00;;;23.00;63.20;;;;;;4175583;28;20100;-63
2022/07/24 05:21:02;;;;;;;1.17;1.08;;;23.00;63.10;;;;;;4174659;28;20049;-63
2022/07/24 05:23:23;;;;;;;0.00;0.00;;;23.00;63.10;;;;;;4174024;28;20554;-63
2022/07/24 05:25:46;;;;;;;0.08;0.08;;;23.00;63.20;;;;;;4173217;28;20045;-63
2022/07/24 05:28:10;;;;;;;1.25;1.08;;;23.00;63.10;;;;;;4175326;28;20115;-63
2022/07/24 05:30:33;;;;;;;0.03;0.03;;;23.00;63.10;;;;;;4187804;28;20052;-64
2022/07/24 05:32:56;;;;;;;0.00;0.00;;;23.00;63.10;;;;;;4190246;28;20137;-63
2022/07/24 05:35:18;;;;;;;0.00;0.00;;;23.00;63.10;;;;;;4191602;28;20892;-64
2022/07/24 05:37:47;;;;;;;0.47;0.47;;;23.00;63.10;;;;;;4190114;28;20048;-63
2022/07/24 05:40:11;;;;;;;0.00;0.00;;;23.00;63.10;;;;;;4189819;28;20051;-64
2022/07/24 05:42:33;;;;;;;0.00;0.00;;;23.00;63.10;;;;;;4189839;28;20511;-63
2022/07/24 05:44:55;;;;;;;0.00;0.00;;;23.00;63.00;;;;;;4191407;28;20071;-63
2022/07/24 05:47:18;;;;;;;0.00;0.00;;;23.00;63.00;;;;;;4191737;28;20509;-63
2022/07/24 05:49:40;;;;;;;0.00;0.00;;;23.10;63.00;;;;;;4191644;28;20550;-64
2022/07/24 05:52:02;;;;;;;0.22;0.22;;;23.10;62.90;;;;;;4191473;28;20139;-62
2022/07/24 05:54:30;;;;;;;0.63;0.63;;;23.10;62.80;;;;;;4190968;28;20045;-62
2022/07/24 05:56:52;;;;;;;0.85;0.63;;;23.10;62.90;;;;;;4191618;28;20508;-62
2022/07/24 05:59:14;;;;;;;0.15;0.15;;;23.10;62.90;;;;;;4194424;28;20078;-61
2022/07/24 06:01:36;;;;;;;0.00;0.00;;;23.10;63.70;;;;;;4194761;28;20139;-61
2022/07/24 06:04:00;;;;;;;0.00;0.00;;;23.10;62.90;;;;;;4194766;28;20047;-61
2022/07/24 06:06:22;;;;;;;0.00;0.00;;;23.10;62.90;;;;;;4189406;28;20053;-62
2022/07/24 06:08:45;;;;;;;0.00;0.00;;;23.10;62.80;;;;;;4179234;28;20052;-63
2022/07/24 06:11:07;;;;;;;0.00;0.00;;;23.10;62.90;;;;;;4194252;28;20483;-64
2022/07/24 06:13:29;;;;;;;0.00;0.00;;;23.10;63.30;;;;;;4192112;28;20118;-62
2022/07/24 06:15:51;;;;;;;0.00;0.00;;;23.10;63.30;;;;;;4192696;28;20036;-69
2022/07/24 06:18:13;;;;;;;0.00;0.00;;;23.10;63.10;;;;;;4192332;28;20040;-70
2022/07/24 06:20:37;;;;;;;0.00;0.00;;;23.20;63.10;;;;;;4193259;28;20143;-68
2022/07/24 06:22:58;;;;;;;0.90;0.90;;;23.20;63.00;;;;;;4190992;28;20048;-68
2022/07/24 06:25:21;;;;;;;0.00;0.00;;;23.20;63.10;;;;;;4193842;28;20048;-69
2022/07/24 06:27:43;;;;;;;0.00;0.00;;;23.20;63.10;;;;;;4193870;28;20098;-69
2022/07/24 06:30:06;;;;;;;0.20;0.20;;;23.20;63.20;;;;;;4192587;28;20056;-68
2022/07/24 06:32:28;;;;;;;0.10;0.10;;;23.20;63.10;;;;;;4186952;28;20062;-69
2022/07/24 06:34:51;;;;;;;0.00;0.00;;;23.20;63.10;;;;;;4193427;28;20044;-69
2022/07/24 06:37:15;;;;;;;0.75;0.75;;;23.20;63.00;;;;;;4194238;28;20071;-69
2022/07/24 06:39:37;;;;;;;0.00;0.00;;;23.20;63.00;;;;;;4193197;28;20064;-69
2022/07/24 06:41:59;;;;;;;0.00;0.00;;;23.20;63.00;;;;;;4192364;28;20047;-69
2022/07/24 06:44:23;;;;;;;0.00;0.00;;;23.20;63.00;;;;;;4193293;28;20048;-67
2022/07/24 06:46:46;;;;;;;0.00;0.00;;;23.20;62.90;;;;;;4190778;28;20056;-68
2022/07/24 06:49:08;;;;;;;0.00;0.00;;;23.20;62.80;;;;;;4187152;28;20044;-67
2022/07/24 06:51:30;;;;;;;0.00;0.00;;;23.20;63.70;;;;;;4193743;28;20545;-68
2022/07/24 06:53:54;;;;;;;0.00;0.00;;;23.30;62.90;;;;;;4192666;28;20483;-67
2022/07/24 06:56:16;;;;;;;0.05;0.05;;;23.30;62.80;;;;;;4193766;28;20780;-67
2022/07/24 06:58:38;;;;;;;0.10;0.10;;;23.30;62.70;;;;;;4193105;28;20079;-67
2022/07/24 07:01:00;;;;;;;0.10;0.10;;;23.40;62.70;;;;;;4193759;28;20483;-67
2022/07/24 07:03:22;;;;;;;0.00;0.00;;;23.40;62.70;;;;;;4193643;28;20139;-67
2022/07/24 07:05:44;;;;;;;0.00;0.00;;;23.50;62.70;;;;;;4191194;28;20119;-66
2022/07/24 07:08:06;;;;;;;1.20;1.13;;;23.50;62.60;;;;;;4193528;28;20071;-68
2022/07/24 07:10:30;;;;;;;0.22;0.22;;;23.60;62.50;;;;;;4192923;28;20155;-66
2022/07/24 07:12:52;;;;;;;0.00;0.00;;;23.60;62.30;;;;;;4192850;28;20094;-67
2022/07/24 07:15:14;;;;;;;0.20;0.20;;;23.70;62.20;;;;;;4192736;28;20379;-67
2022/07/24 07:17:38;;;;;;;0.80;0.80;;;23.70;62.10;;;;;;4193588;28;20044;-67
2022/07/24 07:20:00;;;;;;;0.38;0.38;;;23.80;61.90;;;;;;4192307;28;20055;-66
2022/07/24 07:22:22;;;;;;;0.00;0.00;;;23.90;61.80;;;;;;4178303;28;20057;-66
2022/07/24 07:24:44;;;;;;;0.05;0.05;;;23.90;61.60;;;;;;4175871;28;20056;-66
2022/07/24 07:27:08;;;;;;;0.00;0.00;;;23.90;61.50;;;;;;4176569;28;20404;-67
2022/07/24 07:29:30;;;;;;;0.17;0.17;;;23.90;62.10;;;;;;4174547;28;20044;-66
2022/07/24 07:31:52;;;;;;;0.20;0.20;;;24.00;61.30;;;;;;4182732;28;20070;-67
2022/07/24 07:34:14;;;;;;;1.15;1.15;;;24.00;61.30;;;;;;4184252;28;20053;-66
2022/07/24 07:36:37;;;;;;;0.70;0.70;;;24.10;61.30;;;;;;4193066;28;20098;-69
2022/07/24 07:38:59;;;;;;;0.20;0.20;;;24.10;61.20;;;;;;4192666;28;20059;-66
2022/07/24 07:41:21;;;;;;;0.00;0.00;;;24.10;61.20;;;;;;4193154;28;20048;-67
2022/07/24 07:43:45;;;;;;;0.30;0.30;;;24.10;61.10;;;;;;4191982;28;20086;-66
2022/07/24 07:46:07;;;;;;;0.13;0.13;;;24.10;61.10;;;;;;4192481;28;20106;-67
2022/07/24 07:48:30;;;;;;;4.10;0.93;;;24.10;61.10;;;;;;4191221;28;20126;-66
2022/07/24 07:50:52;;;;;;;0.25;0.25;;;24.20;61.10;;;;;;4193027;28;20399;-67
2022/07/24 07:53:14;;;;;;;0.28;0.28;;;24.20;61.00;;;;;;4192724;28;20060;-67
2022/07/24 07:55:36;;;;;;;0.20;0.20;;;24.30;61.10;;;;;;4190053;28;20063;-67
2022/07/24 07:57:58;;;;;;;0.93;0.93;;;24.30;61.20;;;;;;4193000;28;20217;-67
2022/07/24 08:00:28;;;;;;;0.00;0.00;;;24.30;61.20;;;;;;4191686;28;20068;-66
2022/07/24 08:02:50;;;;;;;0.28;0.28;;;24.30;61.20;;;;;;4193005;28;20135;-67
2022/07/24 08:05:12;;;;;;;0.55;0.55;;;24.30;61.00;;;;;;4191772;28;20872;-67
2022/07/24 08:07:34;;;;;;;0.05;0.05;;;24.30;60.90;;;;;;4175892;28;20041;-67
2022/07/24 08:09:57;;;;;;;0.20;0.17;;;24.30;61.20;;;;;;4187946;28;20056;-67
2022/07/24 08:12:18;;;;;;;0.10;0.10;;;24.30;61.20;;;;;;4192514;28;20540;-68
2022/07/24 08:14:41;;;;;;;0.10;0.10;;;24.30;61.20;;;;;;4188891;28;20048;-67
2022/07/24 08:17:04;;;;;;;0.13;0.13;;;24.30;61.20;;;;;;4191922;28;20127;-67
2022/07/24 08:19:26;;;;;;;0.00;0.00;;;24.30;61.10;;;;;;4190852;28;20051;-68
2022/07/24 08:21:48;;;;;;;0.00;0.00;;;24.30;61.00;;;;;;4184736;28;20052;-68
2022/07/24 08:24:10;;;;;;;0.10;0.10;;;24.30;61.80;;;;;;4192225;28;20044;-68
2022/07/24 08:26:32;;;;;;;0.43;0.43;;;24.40;60.80;;;;;;4191934;28;20055;-67
2022/07/24 08:28:55;;;;;;;0.40;0.40;;;24.40;60.60;;;;;;4192267;28;20127;-66
2022/07/24 08:31:17;;;;;;;0.00;0.00;;;24.40;60.30;;;;;;4192210;28;20052;-67
2022/07/24 08:33:40;;;;;;;0.00;0.00;;;24.40;60.10;;;;;;4191944;28;20479;-68
2022/07/24 08:36:02;;;;;;;0.10;0.10;;;24.50;59.90;;;;;;4192106;28;20464;-68
2022/07/24 08:38:24;;;;;;;0.00;0.00;;;24.50;59.80;;;;;;4191355;28;20059;-67
2022/07/24 08:40:47;;;;;;;0.10;0.10;;;24.50;59.60;;;;;;4191919;28;20064;-67
2022/07/24 08:43:10;;;;;;;0.15;0.15;;;24.60;59.40;;;;;;4190741;28;20049;-64
2022/07/24 08:45:35;;;;;;;1.15;0.43;;;24.50;59.90;;;;;;4191504;28;20090;-67
2022/07/24 08:47:57;;;;;;;0.00;0.00;;;24.60;59.10;;;;;;4191123;28;20048;-67
2022/07/24 08:50:21;;;;;;;0.47;0.47;;;24.60;58.90;;;;;;4191950;28;20052;-68
2022/07/24 08:52:44;;;;;;;0.10;0.10;;;24.60;58.70;;;;;;4191555;28;20067;-66
2022/07/24 08:55:07;;;;;;;0.73;0.73;;;24.60;58.70;;;;;;4191712;28;20121;-67
2022/07/24 08:57:29;;;;;;;0.00;0.00;;;24.70;58.80;;;;;;4191758;28;20040;-67
2022/07/24 08:59:51;;;;;;;0.00;0.00;;;24.70;58.70;;;;;;4189427;28;20110;-67
2022/07/24 09:02:13;;;;;;;0.00;0.00;;;24.70;58.70;;;;;;4192277;28;20483;-67
2022/07/24 09:04:37;;;;;;;0.20;0.20;;;24.70;58.70;;;;;;4191358;28;20060;-66
2022/07/24 09:07:02;;;;;;;0.00;0.00;;;24.70;58.70;;;;;;4191885;28;20086;-67
2022/07/24 09:09:24;;;;;;;1.73;1.35;;;24.80;58.70;;;;;;4191793;28;20499;-67
2022/07/24 09:11:46;;;;;;;0.10;0.10;;;24.80;58.70;;;;;;4190863;28;20143;-67
2022/07/24 09:16:52;;;;;;;0.00;0.00;;;24.80;58.70;;;;;;4191668;28;20072;-68
2022/07/24 09:19:16;;;;;;;0.00;0.00;;;24.80;58.70;;;;;;4191386;28;20041;-68
2022/07/24 09:21:40;;;;;;;0.00;0.00;;;24.80;58.70;;;;;;4187909;28;20103;-68
2022/07/24 09:24:13;;;;;;;0.00;0.00;;;24.80;58.70;;;;;;4176309;28;20076;-67
2022/07/24 09:26:44;;;;;;;0.00;0.00;;;24.80;58.70;;;;;;4191056;28;20102;-67
2022/07/24 09:29:12;;;;;;;1.73;0.40;;;24.80;58.60;;;;;;4191398;28;20128;-67
2022/07/24 09:31:50;;;;;;;0.60;0.60;;;24.80;58.60;;;;;;4191748;28;20446;-66
2022/07/24 09:34:12;;;;;;;4.20;0.73;;;24.80;58.60;;;;;;4194711;28;20523;-68
2022/07/24 09:36:38;;;;;;;0.00;0.00;;;24.80;58.60;;;;;;4192483;28;20102;-67
2022/07/24 09:39:00;;;;;;;0.00;0.00;;;24.80;58.50;;;;;;4193142;28;20056;-67
2022/07/24 09:41:29;;;;;;;0.00;0.00;;;24.90;58.50;;;;;;4186840;28;20550;-67
2022/07/24 09:43:59;;;;;;;0.00;0.00;;;24.80;58.40;;;;;;4194969;28;20055;-67
2022/07/24 09:46:25;;;;;;;0.90;0.68;;;24.90;58.50;;;;;;4193929;28;20134;-67
2022/07/24 09:48:53;;;;;;;0.03;0.03;;;24.90;58.40;;;;;;4193055;28;20041;-68
2022/07/24 09:51:17;;;;;;;0.00;0.00;;;24.90;58.40;;;;;;4194206;28;20044;-67
2022/07/24 09:53:40;;;;;;;0.65;0.65;;;24.90;58.30;;;;;;4194719;28;20049;-67
2022/07/24 09:56:06;;;;;;;0.00;0.00;;;24.90;58.30;;;;;;4194342;28;20052;-66
2022/07/24 09:58:31;;;;;;;0.35;0.35;;;24.90;58.30;;;;;;4194565;28;20075;-68
2022/07/24 10:00:56;;;;;;;1.40;1.35;;;25.00;58.30;;;;;;4193656;28;20057;-68
2022/07/24 10:03:24;;;;;;;0.00;0.00;;;25.00;58.30;;;;;;4177939;28;20056;-69
2022/07/24 10:05:47;;;;;;;2.60;1.50;;;25.00;58.40;;;;;;4178172;28;20048;-66
2022/07/24 10:08:14;;;;;;;0.00;0.00;;;25.00;58.40;;;;;;4177780;28;20047;-66
2022/07/24 10:10:38;;;;;;;0.05;0.05;;;25.10;58.40;;;;;;4187476;28;20076;-66
2022/07/24 10:13:00;;;;;;;0.00;0.00;;;25.10;58.30;;;;;;4192899;28;20056;-65
2022/07/24 10:15:30;;;;;;;0.08;0.08;;;25.20;58.40;;;;;;4194757;28;20056;-67
2022/07/24 10:18:18;;;;;;;0.25;0.25;;;25.20;58.20;;;;;;4193694;28;20044;-61
2022/07/24 10:20:42;;;;;;;0.00;0.00;;;25.30;58.20;;;;;;4193947;28;20052;-60
2022/07/24 10:23:08;;;;;;;0.10;0.10;;;25.30;58.10;;;;;;4194103;28;20060;-61
2022/07/24 10:25:35;;;;;;;0.47;0.47;;;25.30;58.00;;;;;;4194261;28;20040;-60
2022/07/24 10:28:02;;;;;;;0.10;0.10;;;25.30;57.80;;;;;;4193779;28;20045;-60
2022/07/24 10:30:26;;;;;;;0.00;0.00;;;25.30;57.80;;;;;;4193742;28;20064;-60
2022/07/24 10:32:50;;;;;;;0.00;0.00;;;25.40;58.60;;;;;;4194182;28;20126;-60
2022/07/24 10:35:14;;;;;;;0.00;0.00;;;25.40;57.80;;;;;;4193529;28;20051;-61
2022/07/24 10:37:52;;;;;;;0.25;0.25;;;25.40;57.80;;;;;;4193632;28;20059;-60
2022/07/24 10:40:22;;;;;;;0.10;0.10;;;25.40;57.80;;;;;;4192377;28;20071;-60
2022/07/24 10:43:09;;;;;;;0.00;0.00;;;25.40;57.70;;;;;;4192127;28;20072;-60
2022/07/24 10:45:33;;;;;;;0.00;0.00;;;25.50;57.70;;;;;;4193589;28;20044;-60
2022/07/24 10:47:56;;;;;;;0.80;0.80;;;25.50;57.70;;;;;;4193295;28;20044;-60
2022/07/24 10:50:22;;;;;;;0.28;0.28;;;25.50;57.70;;;;;;4191742;28;20113;-60
2022/07/24 10:52:44;;;;;;;0.00;0.00;;;25.50;57.60;;;;;;4193294;28;20053;-60
2022/07/24 10:55:27;;;;;;;0.00;0.00;;;25.50;57.60;;;;;;4193771;28;20052;-60
2022/07/24 10:57:59;;;;;;;0.00;0.00;;;25.50;57.60;;;;;;4193265;28;20048;-60
2022/07/24 11:00:23;;;;;;;0.55;0.38;;;25.60;57.60;;;;;;4193629;28;20086;-61
2022/07/24 11:02:57;;;;;;;0.00;0.00;;;25.60;57.50;;;;;;4193608;28;20435;-61
2022/07/24 11:05:34;;;;;;;0.10;0.10;;;25.60;57.50;;;;;;4192313;28;20049;-60
2022/07/24 11:08:33;;;;;;;0.55;0.55;;;25.60;58.20;;;;;;4193480;28;20513;-60
2022/07/24 11:10:57;;;;;;;0.00;0.00;;;25.60;57.40;;;;;;4141281;28;20153;-61
2022/07/24 11:13:51;;;;;;;0.08;0.08;;;25.60;57.30;;;;;;4141070;28;20054;-61
2022/07/24 11:16:25;;;;;;;0.00;0.00;;;25.70;57.30;;;;;;4107163;28;20097;-61
2022/07/24 11:19:27;;;;;;;0.00;0.00;;;25.70;57.30;;;;;;4189495;28;20044;-60
2022/07/24 11:22:09;;;;;;;0.17;0.17;;;25.70;57.20;;;;;;4191393;28;20051;-60
2022/07/24 11:24:31;;;;;;;0.10;0.10;;;25.70;57.10;;;;;;4193071;28;20106;-61
2022/07/24 11:26:56;;;;;;;0.00;0.00;;;25.80;57.20;;;;;;4192886;28;20053;-61
2022/07/24 11:29:22;;;;;;;0.00;0.00;;;25.80;57.20;;;;;;4193408;28;20044;-61
2022/07/24 11:31:46;;;;;;;0.43;0.43;;;25.80;57.10;;;;;;4193064;28;20049;-61
2022/07/24 11:34:10;;;;;;;0.20;0.20;;;25.80;57.10;;;;;;4193104;28;20041;-61
2022/07/24 11:36:32;;;;;;;0.10;0.10;;;25.80;57.10;;;;;;4192753;28;20129;-61
2022/07/24 11:38:56;;;;;;;0.10;0.10;;;25.80;57.10;;;;;;4191449;28;20076;-61
2022/07/24 11:41:18;;;;;;;0.15;0.15;;;25.90;57.10;;;;;;4192755;28;20098;-61
2022/07/24 11:43:51;;;;;;;0.30;0.30;;;25.90;57.10;;;;;;4192517;28;20510;-61
2022/07/24 11:46:12;;;;;;;0.32;0.32;;;25.90;57.10;;;;;;4193002;28;20118;-61
2022/07/24 11:48:35;;;;;;;0.28;0.28;;;25.90;57.10;;;;;;4192742;28;20924;-61
2022/07/24 11:51:07;;;;;;;0.00;0.00;;;25.90;57.00;;;;;;4191304;28;20127;-60
2022/07/24 11:53:49;;;;;;;0.00;0.00;;;25.90;57.00;;;;;;4192973;28;20047;-60
2022/07/24 11:56:12;;;;;;;1.30;0.30;;;25.90;57.10;;;;;;4192642;28;20072;-61
2022/07/24 11:58:38;;;;;;;0.00;0.00;;;25.90;57.00;;;;;;4192605;28;20048;-60
2022/07/24 12:01:01;;;;;;;0.10;0.10;;;26.00;57.10;;;;;;4192944;28;20487;-61
2022/07/24 12:03:25;;;;;;;0.38;0.38;;;26.00;57.00;;;;;;4192731;28;20048;-60
2022/07/24 12:05:47;;;;;;;0.15;0.10;;;26.00;57.00;;;;;;4192305;28;20048;-61
2022/07/24 12:08:17;;;;;;;0.00;0.00;;;26.00;57.00;;;;;;4192727;28;20044;-61
2022/07/24 12:10:39;;;;;;;0.00;0.00;;;26.00;57.70;;;;;;4192687;28;20076;-60
2022/07/24 12:13:02;;;;;;;0.77;0.65;;;26.10;56.90;;;;;;4192213;28;20056;-62
2022/07/24 12:15:26;;;;;;;2.53;0.45;;;26.10;56.90;;;;;;4192716;28;20479;-61
2022/07/24 12:17:56;;;;;;;0.00;0.00;;;26.10;56.90;;;;;;4192286;28;20454;-61
2022/07/24 12:20:21;;;;;;;0.30;0.30;;;26.10;56.80;;;;;;4191880;28;20464;-61
2022/07/24 12:22:43;;;;;;;2.30;0.40;;;26.20;56.90;;;;;;4191023;28;20055;-61
2022/07/24 12:25:07;;;;;;;0.00;0.00;;;26.20;56.90;;;;;;4191898;28;20143;-65
2022/07/24 12:27:52;;;;;;;0.03;0.03;;;26.20;57.60;;;;;;4191777;28;20155;-67
2022/07/24 12:30:26;;;;;;;0.00;0.00;;;26.20;56.80;;;;;;4192293;28;20114;-73
2022/07/24 12:33:00;;;;;;;0.00;0.00;;;26.20;56.80;;;;;;4192097;28;20048;-67